sensor_id;sensor_type;location;lat;lon;timestamp;temperature;humidity
16289;DHT22;26089;43.538;5.250;2023-04-30T00:00:29;16.60;99.90
16289;DHT22;26089;43.538;5.250;2023-04-30T00:02:56;16.50;99.90
16289;DHT22;26089;43.538;5.250;2023-04-30T00:05:23;16.60;99.90
16289;DHT22;26089;43.538;5.250;2023-04-30T00:07:50;16.60;99.90
16289;DHT22;26089;43.538;5.250;2023-04-30T00:10:18;16.60;99.90
16289;DHT22;26089;43.538;5.250;2023-04-30T00:12:45;16.60;99.90
16289;DHT22;26089;43.538;5.250;2023-04-30T00:15:12;16.60;99.90
16289;DHT22;26089;43.538;5.250;2023-04-30T00:17:39;16.60;99.90
16289;DHT22;26089;43.538;5.250;2023-04-30T00:20:07;16.60;99.90
16289;DHT22;26089;43.538;5.250;2023-04-30T00:22:34;16.50;99.90
16289;DHT22;26089;43.538;5.250;2023-04-30T00:25:01;16.60;99.90
16289;DHT22;26089;43.538;5.250;2023-04-30T00:27:29;16.60;99.90
16289;DHT22;26089;43.538;5.250;2023-04-30T00:29:57;16.60;99.90
16289;DHT22;26089;43.538;5.250;2023-04-30T00:32:24;16.50;99.90
16289;DHT22;26089;43.538;5.250;2023-04-30T00:34:51;16.60;99.90
16289;DHT22;26089;43.538;5.250;2023-04-30T00:37:17;16.60;99.90
16289;DHT22;26089;43.538;5.250;2023-04-30T00:39:44;16.60;99.90
16289;DHT22;26089;43.538;5.250;2023-04-30T00:42:11;16.70;99.90
16289;DHT22;26089;43.538;5.250;2023-04-30T00:44:40;16.60;99.90
16289;DHT22;26089;43.538;5.250;2023-04-30T00:47:07;16.60;99.90
16289;DHT22;26089;43.538;5.250;2023-04-30T00:49:34;16.60;99.90
16289;DHT22;26089;43.538;5.250;2023-04-30T00:52:01;16.60;99.90
16289;DHT22;26089;43.538;5.250;2023-04-30T00:54:28;16.60;99.90
16289;DHT22;26089;43.538;5.250;2023-04-30T00:56:55;16.60;99.90
16289;DHT22;26089;43.538;5.250;2023-04-30T00:59:22;16.60;99.90
16289;DHT22;26089;43.538;5.250;2023-04-30T01:01:51;16.60;99.90
16289;DHT22;26089;43.538;5.250;2023-04-30T01:04:19;16.60;99.90
16289;DHT22;26089;43.538;5.250;2023-04-30T01:06:46;16.50;99.90
16289;DHT22;26089;43.538;5.250;2023-04-30T01:09:13;16.50;99.90
16289;DHT22;26089;43.538;5.250;2023-04-30T01:11:48;16.50;99.90
16289;DHT22;26089;43.538;5.250;2023-04-30T01:14:26;16.50;99.90
16289;DHT22;26089;43.538;5.250;2023-04-30T01:17:01;16.50;99.90
16289;DHT22;26089;43.538;5.250;2023-04-30T01:19:37;16.50;99.90
16289;DHT22;26089;43.538;5.250;2023-04-30T01:22:09;16.60;99.90
16289;DHT22;26089;43.538;5.250;2023-04-30T01:25:00;16.60;99.90
16289;DHT22;26089;43.538;5.250;2023-04-30T01:28:02;16.60;99.90
16289;DHT22;26089;43.538;5.250;2023-04-30T01:30:31;16.50;99.90
16289;DHT22;26089;43.538;5.250;2023-04-30T01:32:58;16.60;99.90
16289;DHT22;26089;43.538;5.250;2023-04-30T01:38:31;16.60;99.90
16289;DHT22;26089;43.538;5.250;2023-04-30T01:41:22;16.60;99.90
16289;DHT22;26089;43.538;5.250;2023-04-30T01:44:05;16.60;99.90
16289;DHT22;26089;43.538;5.250;2023-04-30T01:46:34;16.70;99.90
16289;DHT22;26089;43.538;5.250;2023-04-30T01:49:07;16.70;99.90
16289;DHT22;26089;43.538;5.250;2023-04-30T01:51:40;16.70;99.90
16289;DHT22;26089;43.538;5.250;2023-04-30T01:54:15;16.80;99.90
16289;DHT22;26089;43.538;5.250;2023-04-30T01:56:50;16.80;99.90
16289;DHT22;26089;43.538;5.250;2023-04-30T01:59:21;16.80;99.90
16289;DHT22;26089;43.538;5.250;2023-04-30T02:01:49;16.80;99.90
16289;DHT22;26089;43.538;5.250;2023-04-30T02:04:16;16.70;99.90
16289;DHT22;26089;43.538;5.250;2023-04-30T02:06:42;16.70;99.90
16289;DHT22;26089;43.538;5.250;2023-04-30T02:09:09;16.70;99.90
16289;DHT22;26089;43.538;5.250;2023-04-30T02:11:36;16.70;99.90
16289;DHT22;26089;43.538;5.250;2023-04-30T02:14:03;16.80;99.90
16289;DHT22;26089;43.538;5.250;2023-04-30T02:16:32;16.80;99.90
16289;DHT22;26089;43.538;5.250;2023-04-30T02:18:59;16.90;99.90
16289;DHT22;26089;43.538;5.250;2023-04-30T02:21:26;16.80;99.90
16289;DHT22;26089;43.538;5.250;2023-04-30T02:23:53;16.80;99.90
16289;DHT22;26089;43.538;5.250;2023-04-30T02:26:20;16.80;99.90
16289;DHT22;26089;43.538;5.250;2023-04-30T02:28:47;16.80;99.90
16289;DHT22;26089;43.538;5.250;2023-04-30T02:31:14;16.80;99.90
16289;DHT22;26089;43.538;5.250;2023-04-30T02:33:42;16.80;99.90
16289;DHT22;26089;43.538;5.250;2023-04-30T02:36:09;16.70;99.90
16289;DHT22;26089;43.538;5.250;2023-04-30T02:38:36;16.60;99.90
16289;DHT22;26089;43.538;5.250;2023-04-30T02:41:03;16.70;99.90
16289;DHT22;26089;43.538;5.250;2023-04-30T02:43:30;16.70;99.90
16289;DHT22;26089;43.538;5.250;2023-04-30T02:45:57;16.70;99.90
16289;DHT22;26089;43.538;5.250;2023-04-30T02:48:24;16.70;99.90
16289;DHT22;26089;43.538;5.250;2023-04-30T02:50:52;16.70;99.90
16289;DHT22;26089;43.538;5.250;2023-04-30T02:53:19;16.60;99.90
16289;DHT22;26089;43.538;5.250;2023-04-30T02:55:46;16.70;99.90
16289;DHT22;26089;43.538;5.250;2023-04-30T02:58:13;16.70;99.90
16289;DHT22;26089;43.538;5.250;2023-04-30T03:00:40;16.70;99.90
16289;DHT22;26089;43.538;5.250;2023-04-30T03:03:07;16.80;99.90
16289;DHT22;26089;43.538;5.250;2023-04-30T03:05:34;16.80;99.90
16289;DHT22;26089;43.538;5.250;2023-04-30T03:08:02;16.80;99.90
16289;DHT22;26089;43.538;5.250;2023-04-30T03:10:29;16.80;99.90
16289;DHT22;26089;43.538;5.250;2023-04-30T03:12:56;16.80;99.90
16289;DHT22;26089;43.538;5.250;2023-04-30T03:15:23;16.90;99.90
16289;DHT22;26089;43.538;5.250;2023-04-30T03:17:50;16.80;99.90
16289;DHT22;26089;43.538;5.250;2023-04-30T03:20:17;16.80;99.90
16289;DHT22;26089;43.538;5.250;2023-04-30T03:22:44;16.80;99.90
16289;DHT22;26089;43.538;5.250;2023-04-30T03:25:13;16.80;99.90
16289;DHT22;26089;43.538;5.250;2023-04-30T03:27:40;16.80;99.90
16289;DHT22;26089;43.538;5.250;2023-04-30T03:30:07;16.80;99.90
16289;DHT22;26089;43.538;5.250;2023-04-30T03:32:34;16.80;99.90
16289;DHT22;26089;43.538;5.250;2023-04-30T03:35:01;16.70;99.90
16289;DHT22;26089;43.538;5.250;2023-04-30T03:37:28;16.60;99.90
16289;DHT22;26089;43.538;5.250;2023-04-30T03:39:55;16.70;99.90
16289;DHT22;26089;43.538;5.250;2023-04-30T03:42:23;16.70;99.90
16289;DHT22;26089;43.538;5.250;2023-04-30T03:44:50;16.70;99.90
16289;DHT22;26089;43.538;5.250;2023-04-30T03:47:17;16.70;99.90
16289;DHT22;26089;43.538;5.250;2023-04-30T03:49:44;16.60;99.90
16289;DHT22;26089;43.538;5.250;2023-04-30T03:52:13;16.60;99.90
16289;DHT22;26089;43.538;5.250;2023-04-30T03:54:40;16.60;99.90
16289;DHT22;26089;43.538;5.250;2023-04-30T03:57:07;16.60;99.90
16289;DHT22;26089;43.538;5.250;2023-04-30T03:59:36;16.60;99.90
16289;DHT22;26089;43.538;5.250;2023-04-30T04:02:03;16.60;99.90
16289;DHT22;26089;43.538;5.250;2023-04-30T04:04:31;16.60;99.90
16289;DHT22;26089;43.538;5.250;2023-04-30T04:06:58;16.70;99.90
16289;DHT22;26089;43.538;5.250;2023-04-30T04:09:25;16.60;99.90
16289;DHT22;26089;43.538;5.250;2023-04-30T04:11:52;16.60;99.90
16289;DHT22;26089;43.538;5.250;2023-04-30T04:14:20;16.60;99.90
16289;DHT22;26089;43.538;5.250;2023-04-30T04:16:48;16.70;99.90
16289;DHT22;26089;43.538;5.250;2023-04-30T04:19:15;16.60;99.90
16289;DHT22;26089;43.538;5.250;2023-04-30T04:21:42;16.60;99.90
16289;DHT22;26089;43.538;5.250;2023-04-30T04:24:09;16.60;99.90
16289;DHT22;26089;43.538;5.250;2023-04-30T04:26:37;16.60;99.90
16289;DHT22;26089;43.538;5.250;2023-04-30T04:29:04;16.60;99.90
16289;DHT22;26089;43.538;5.250;2023-04-30T04:31:31;16.60;99.90
16289;DHT22;26089;43.538;5.250;2023-04-30T04:34:01;16.60;99.90
16289;DHT22;26089;43.538;5.250;2023-04-30T04:36:29;16.50;99.90
16289;DHT22;26089;43.538;5.250;2023-04-30T04:38:58;16.60;99.90
16289;DHT22;26089;43.538;5.250;2023-04-30T04:41:27;16.60;99.90
16289;DHT22;26089;43.538;5.250;2023-04-30T04:43:54;16.60;99.90
16289;DHT22;26089;43.538;5.250;2023-04-30T04:46:21;16.60;99.90
16289;DHT22;26089;43.538;5.250;2023-04-30T04:48:48;16.70;99.90
16289;DHT22;26089;43.538;5.250;2023-04-30T04:51:16;16.60;99.90
16289;DHT22;26089;43.538;5.250;2023-04-30T04:53:43;16.60;99.90
16289;DHT22;26089;43.538;5.250;2023-04-30T04:56:11;16.60;99.90
16289;DHT22;26089;43.538;5.250;2023-04-30T04:58:41;16.60;99.90
16289;DHT22;26089;43.538;5.250;2023-04-30T05:01:08;16.60;99.90
16289;DHT22;26089;43.538;5.250;2023-04-30T05:03:35;16.60;99.90
16289;DHT22;26089;43.538;5.250;2023-04-30T05:06:02;16.60;99.90
16289;DHT22;26089;43.538;5.250;2023-04-30T05:08:31;16.60;99.90
16289;DHT22;26089;43.538;5.250;2023-04-30T05:10:58;16.60;99.90
16289;DHT22;26089;43.538;5.250;2023-04-30T05:13:25;16.70;99.90
16289;DHT22;26089;43.538;5.250;2023-04-30T05:15:52;16.80;99.90
16289;DHT22;26089;43.538;5.250;2023-04-30T05:18:20;16.80;99.90
16289;DHT22;26089;43.538;5.250;2023-04-30T05:20:47;16.90;99.90
16289;DHT22;26089;43.538;5.250;2023-04-30T05:23:14;17.00;99.90
16289;DHT22;26089;43.538;5.250;2023-04-30T05:25:42;17.00;99.90
16289;DHT22;26089;43.538;5.250;2023-04-30T05:28:10;17.10;99.90
16289;DHT22;26089;43.538;5.250;2023-04-30T05:30:37;17.10;99.90
16289;DHT22;26089;43.538;5.250;2023-04-30T05:33:04;17.10;99.90
16289;DHT22;26089;43.538;5.250;2023-04-30T05:35:31;17.10;99.90
16289;DHT22;26089;43.538;5.250;2023-04-30T05:38:00;17.00;99.90
16289;DHT22;26089;43.538;5.250;2023-04-30T05:40:28;17.00;99.90
16289;DHT22;26089;43.538;5.250;2023-04-30T05:42:56;17.00;99.90
16289;DHT22;26089;43.538;5.250;2023-04-30T05:45:23;17.10;99.90
16289;DHT22;26089;43.538;5.250;2023-04-30T05:47:50;17.10;99.90
16289;DHT22;26089;43.538;5.250;2023-04-30T05:50:17;17.10;99.90
16289;DHT22;26089;43.538;5.250;2023-04-30T05:52:45;17.10;99.90
16289;DHT22;26089;43.538;5.250;2023-04-30T05:55:12;17.10;99.90
16289;DHT22;26089;43.538;5.250;2023-04-30T05:57:39;17.00;99.90
16289;DHT22;26089;43.538;5.250;2023-04-30T06:00:08;17.10;99.90
16289;DHT22;26089;43.538;5.250;2023-04-30T06:02:35;17.00;99.90
16289;DHT22;26089;43.538;5.250;2023-04-30T06:05:03;17.00;99.90
16289;DHT22;26089;43.538;5.250;2023-04-30T06:07:30;17.00;99.90
16289;DHT22;26089;43.538;5.250;2023-04-30T06:09:57;17.00;99.90
16289;DHT22;26089;43.538;5.250;2023-04-30T06:12:24;17.00;99.90
16289;DHT22;26089;43.538;5.250;2023-04-30T06:14:51;17.00;99.90
16289;DHT22;26089;43.538;5.250;2023-04-30T06:17:19;17.00;99.90
16289;DHT22;26089;43.538;5.250;2023-04-30T06:19:46;17.00;99.90
16289;DHT22;26089;43.538;5.250;2023-04-30T06:22:13;17.00;99.90
16289;DHT22;26089;43.538;5.250;2023-04-30T06:24:40;17.10;99.90
16289;DHT22;26089;43.538;5.250;2023-04-30T06:27:07;17.10;99.90
16289;DHT22;26089;43.538;5.250;2023-04-30T06:29:34;17.10;99.90
16289;DHT22;26089;43.538;5.250;2023-04-30T06:32:01;17.20;99.90
16289;DHT22;26089;43.538;5.250;2023-04-30T06:34:29;17.20;99.90
16289;DHT22;26089;43.538;5.250;2023-04-30T06:36:56;17.20;99.90
16289;DHT22;26089;43.538;5.250;2023-04-30T06:39:23;17.10;99.90
16289;DHT22;26089;43.538;5.250;2023-04-30T06:41:50;17.10;99.90
16289;DHT22;26089;43.538;5.250;2023-04-30T06:44:17;17.10;99.90
16289;DHT22;26089;43.538;5.250;2023-04-30T06:46:44;17.20;99.90
16289;DHT22;26089;43.538;5.250;2023-04-30T06:49:11;17.20;99.90
16289;DHT22;26089;43.538;5.250;2023-04-30T06:51:40;17.20;99.90
16289;DHT22;26089;43.538;5.250;2023-04-30T06:54:07;17.20;99.90
16289;DHT22;26089;43.538;5.250;2023-04-30T06:56:35;17.20;99.90
16289;DHT22;26089;43.538;5.250;2023-04-30T06:59:02;17.10;99.90
16289;DHT22;26089;43.538;5.250;2023-04-30T07:01:29;17.20;99.90
16289;DHT22;26089;43.538;5.250;2023-04-30T07:03:56;17.20;99.90
16289;DHT22;26089;43.538;5.250;2023-04-30T07:06:23;17.20;99.90
16289;DHT22;26089;43.538;5.250;2023-04-30T07:08:51;17.20;99.90
16289;DHT22;26089;43.538;5.250;2023-04-30T07:11:18;17.20;99.90
16289;DHT22;26089;43.538;5.250;2023-04-30T07:13:45;17.20;99.90
16289;DHT22;26089;43.538;5.250;2023-04-30T07:16:12;17.20;99.90
16289;DHT22;26089;43.538;5.250;2023-04-30T07:18:41;17.10;99.90
16289;DHT22;26089;43.538;5.250;2023-04-30T07:21:08;17.10;99.90
16289;DHT22;26089;43.538;5.250;2023-04-30T07:23:35;17.10;99.90
16289;DHT22;26089;43.538;5.250;2023-04-30T07:26:04;17.10;99.90
16289;DHT22;26089;43.538;5.250;2023-04-30T07:28:31;17.10;99.90
16289;DHT22;26089;43.538;5.250;2023-04-30T07:30:58;17.00;99.90
16289;DHT22;26089;43.538;5.250;2023-04-30T07:33:25;17.10;99.90
16289;DHT22;26089;43.538;5.250;2023-04-30T07:35:51;17.00;99.90
16289;DHT22;26089;43.538;5.250;2023-04-30T07:38:20;17.10;99.90
16289;DHT22;26089;43.538;5.250;2023-04-30T07:40:48;17.10;99.90
16289;DHT22;26089;43.538;5.250;2023-04-30T07:43:16;17.10;99.90
16289;DHT22;26089;43.538;5.250;2023-04-30T07:45:45;17.20;99.90
16289;DHT22;26089;43.538;5.250;2023-04-30T07:48:13;17.20;99.90
16289;DHT22;26089;43.538;5.250;2023-04-30T07:50:41;17.30;99.90
16289;DHT22;26089;43.538;5.250;2023-04-30T07:53:08;17.20;99.90
16289;DHT22;26089;43.538;5.250;2023-04-30T07:55:35;17.30;99.90
16289;DHT22;26089;43.538;5.250;2023-04-30T07:58:02;17.30;99.90
16289;DHT22;26089;43.538;5.250;2023-04-30T08:00:30;17.30;99.90
16289;DHT22;26089;43.538;5.250;2023-04-30T08:02:58;17.30;99.90
16289;DHT22;26089;43.538;5.250;2023-04-30T08:05:25;17.40;99.90
16289;DHT22;26089;43.538;5.250;2023-04-30T08:07:52;17.40;99.90
16289;DHT22;26089;43.538;5.250;2023-04-30T08:10:19;17.40;99.90
16289;DHT22;26089;43.538;5.250;2023-04-30T08:12:46;17.40;99.90
16289;DHT22;26089;43.538;5.250;2023-04-30T08:15:13;17.30;99.90
16289;DHT22;26089;43.538;5.250;2023-04-30T08:17:41;17.20;99.90
16289;DHT22;26089;43.538;5.250;2023-04-30T08:20:10;17.20;99.90
16289;DHT22;26089;43.538;5.250;2023-04-30T08:22:37;17.20;99.90
16289;DHT22;26089;43.538;5.250;2023-04-30T08:25:05;17.30;99.90
16289;DHT22;26089;43.538;5.250;2023-04-30T08:27:32;17.20;99.90
16289;DHT22;26089;43.538;5.250;2023-04-30T08:29:59;17.10;99.90
16289;DHT22;26089;43.538;5.250;2023-04-30T08:32:26;17.00;99.90
16289;DHT22;26089;43.538;5.250;2023-04-30T08:34:55;16.90;99.90
16289;DHT22;26089;43.538;5.250;2023-04-30T08:37:22;16.90;99.90
16289;DHT22;26089;43.538;5.250;2023-04-30T08:39:49;16.90;99.90
16289;DHT22;26089;43.538;5.250;2023-04-30T08:42:16;16.90;99.90
16289;DHT22;26089;43.538;5.250;2023-04-30T08:44:44;16.80;99.90
16289;DHT22;26089;43.538;5.250;2023-04-30T08:47:12;16.80;99.90
16289;DHT22;26089;43.538;5.250;2023-04-30T08:49:40;16.80;99.90
16289;DHT22;26089;43.538;5.250;2023-04-30T08:52:09;16.90;99.90
16289;DHT22;26089;43.538;5.250;2023-04-30T08:54:36;16.90;99.90
16289;DHT22;26089;43.538;5.250;2023-04-30T08:57:04;17.00;99.90
16289;DHT22;26089;43.538;5.250;2023-04-30T08:59:31;17.30;99.90
16289;DHT22;26089;43.538;5.250;2023-04-30T09:01:59;17.40;99.90
16289;DHT22;26089;43.538;5.250;2023-04-30T09:04:27;17.40;99.90
16289;DHT22;26089;43.538;5.250;2023-04-30T09:06:54;17.60;99.90
16289;DHT22;26089;43.538;5.250;2023-04-30T09:09:27;17.70;99.90
16289;DHT22;26089;43.538;5.250;2023-04-30T09:12:10;17.80;99.90
16289;DHT22;26089;43.538;5.250;2023-04-30T09:14:38;17.90;99.90
16289;DHT22;26089;43.538;5.250;2023-04-30T09:17:06;18.00;99.90
16289;DHT22;26089;43.538;5.250;2023-04-30T09:19:34;18.60;99.90
16289;DHT22;26089;43.538;5.250;2023-04-30T09:22:21;18.10;99.90
16289;DHT22;26089;43.538;5.250;2023-04-30T09:24:50;18.10;99.90
16289;DHT22;26089;43.538;5.250;2023-04-30T09:27:21;18.10;99.90
16289;DHT22;26089;43.538;5.250;2023-04-30T09:29:49;17.90;99.90
16289;DHT22;26089;43.538;5.250;2023-04-30T09:32:16;18.10;99.90
16289;DHT22;26089;43.538;5.250;2023-04-30T09:34:43;18.30;99.90
16289;DHT22;26089;43.538;5.250;2023-04-30T09:37:10;18.60;99.90
16289;DHT22;26089;43.538;5.250;2023-04-30T09:39:47;18.70;99.90
16289;DHT22;26089;43.538;5.250;2023-04-30T09:42:17;18.90;99.90
16289;DHT22;26089;43.538;5.250;2023-04-30T09:44:45;18.90;99.90
16289;DHT22;26089;43.538;5.250;2023-04-30T09:47:14;18.90;99.90
16289;DHT22;26089;43.538;5.250;2023-04-30T09:49:42;18.80;99.90
16289;DHT22;26089;43.538;5.250;2023-04-30T09:52:10;18.90;99.90
16289;DHT22;26089;43.538;5.250;2023-04-30T09:54:38;18.90;99.90
16289;DHT22;26089;43.538;5.250;2023-04-30T09:57:09;19.00;99.90
16289;DHT22;26089;43.538;5.250;2023-04-30T09:59:43;19.10;99.90
16289;DHT22;26089;43.538;5.250;2023-04-30T10:02:12;19.30;99.90
16289;DHT22;26089;43.538;5.250;2023-04-30T10:04:42;19.40;99.90
16289;DHT22;26089;43.538;5.250;2023-04-30T10:07:20;19.60;99.90
16289;DHT22;26089;43.538;5.250;2023-04-30T10:09:49;19.60;99.90
16289;DHT22;26089;43.538;5.250;2023-04-30T10:12:22;19.70;99.90
16289;DHT22;26089;43.538;5.250;2023-04-30T10:14:56;19.80;99.90
16289;DHT22;26089;43.538;5.250;2023-04-30T10:17:26;19.80;99.90
16289;DHT22;26089;43.538;5.250;2023-04-30T10:20:01;19.80;99.90
16289;DHT22;26089;43.538;5.250;2023-04-30T10:22:29;19.80;99.90
16289;DHT22;26089;43.538;5.250;2023-04-30T10:24:59;19.80;99.90
16289;DHT22;26089;43.538;5.250;2023-04-30T10:27:27;19.70;99.90
16289;DHT22;26089;43.538;5.250;2023-04-30T10:29:56;19.70;99.90
16289;DHT22;26089;43.538;5.250;2023-04-30T10:32:29;19.80;99.90
16289;DHT22;26089;43.538;5.250;2023-04-30T10:35:05;20.00;99.90
16289;DHT22;26089;43.538;5.250;2023-04-30T10:37:52;20.30;99.90
16289;DHT22;26089;43.538;5.250;2023-04-30T10:40:20;20.70;99.90
16289;DHT22;26089;43.538;5.250;2023-04-30T10:42:48;20.70;99.90
16289;DHT22;26089;43.538;5.250;2023-04-30T10:45:17;20.70;99.90
16289;DHT22;26089;43.538;5.250;2023-04-30T10:47:45;20.80;99.90
16289;DHT22;26089;43.538;5.250;2023-04-30T10:50:12;21.20;99.90
16289;DHT22;26089;43.538;5.250;2023-04-30T10:52:39;21.70;99.90
16289;DHT22;26089;43.538;5.250;2023-04-30T10:55:07;21.90;99.90
16289;DHT22;26089;43.538;5.250;2023-04-30T10:57:40;22.00;99.90
16289;DHT22;26089;43.538;5.250;2023-04-30T11:00:23;22.10;99.90
16289;DHT22;26089;43.538;5.250;2023-04-30T11:02:55;21.90;99.90
16289;DHT22;26089;43.538;5.250;2023-04-30T11:05:33;21.90;99.90
16289;DHT22;26089;43.538;5.250;2023-04-30T11:08:00;21.90;99.90
16289;DHT22;26089;43.538;5.250;2023-04-30T11:10:32;21.80;99.90
16289;DHT22;26089;43.538;5.250;2023-04-30T11:13:02;21.80;99.90
16289;DHT22;26089;43.538;5.250;2023-04-30T11:15:33;22.00;99.90
16289;DHT22;26089;43.538;5.250;2023-04-30T11:18:01;22.00;99.90
16289;DHT22;26089;43.538;5.250;2023-04-30T11:20:28;22.10;99.90
16289;DHT22;26089;43.538;5.250;2023-04-30T11:23:08;21.90;99.90
16289;DHT22;26089;43.538;5.250;2023-04-30T11:25:39;21.70;99.90
16289;DHT22;26089;43.538;5.250;2023-04-30T11:28:07;21.50;99.90
16289;DHT22;26089;43.538;5.250;2023-04-30T11:30:36;21.30;99.90
16289;DHT22;26089;43.538;5.250;2023-04-30T11:33:03;21.20;99.90
16289;DHT22;26089;43.538;5.250;2023-04-30T11:35:31;21.10;99.90
16289;DHT22;26089;43.538;5.250;2023-04-30T11:37:59;21.10;99.90
16289;DHT22;26089;43.538;5.250;2023-04-30T11:40:26;21.10;99.90
16289;DHT22;26089;43.538;5.250;2023-04-30T11:42:54;21.30;99.90
16289;DHT22;26089;43.538;5.250;2023-04-30T11:45:21;21.40;99.90
16289;DHT22;26089;43.538;5.250;2023-04-30T11:47:51;21.40;99.90
16289;DHT22;26089;43.538;5.250;2023-04-30T11:50:20;21.40;99.90
16289;DHT22;26089;43.538;5.250;2023-04-30T11:52:53;21.50;99.90
16289;DHT22;26089;43.538;5.250;2023-04-30T11:55:21;21.70;99.90
16289;DHT22;26089;43.538;5.250;2023-04-30T11:57:51;22.00;99.90
16289;DHT22;26089;43.538;5.250;2023-04-30T12:00:21;22.50;99.90
16289;DHT22;26089;43.538;5.250;2023-04-30T12:02:53;22.70;99.90
16289;DHT22;26089;43.538;5.250;2023-04-30T12:05:21;22.90;99.90
16289;DHT22;26089;43.538;5.250;2023-04-30T12:07:50;23.00;99.90
16289;DHT22;26089;43.538;5.250;2023-04-30T12:10:18;23.10;99.90
16289;DHT22;26089;43.538;5.250;2023-04-30T12:12:46;23.30;99.90
16289;DHT22;26089;43.538;5.250;2023-04-30T12:15:15;23.30;99.90
16289;DHT22;26089;43.538;5.250;2023-04-30T12:17:42;23.30;99.90
16289;DHT22;26089;43.538;5.250;2023-04-30T12:20:13;23.50;99.90
16289;DHT22;26089;43.538;5.250;2023-04-30T12:22:41;24.00;99.90
16289;DHT22;26089;43.538;5.250;2023-04-30T12:25:11;24.70;99.90
16289;DHT22;26089;43.538;5.250;2023-04-30T12:27:40;25.50;99.90
16289;DHT22;26089;43.538;5.250;2023-04-30T12:30:08;26.10;99.90
16289;DHT22;26089;43.538;5.250;2023-04-30T12:32:39;26.90;99.90
16289;DHT22;26089;43.538;5.250;2023-04-30T12:35:08;27.00;99.90
16289;DHT22;26089;43.538;5.250;2023-04-30T12:37:40;26.50;99.90
16289;DHT22;26089;43.538;5.250;2023-04-30T12:40:08;25.90;99.90
16289;DHT22;26089;43.538;5.250;2023-04-30T12:42:35;25.30;99.90
16289;DHT22;26089;43.538;5.250;2023-04-30T12:45:03;24.80;99.90
16289;DHT22;26089;43.538;5.250;2023-04-30T12:47:30;24.50;99.90
16289;DHT22;26089;43.538;5.250;2023-04-30T12:49:57;24.20;99.90
16289;DHT22;26089;43.538;5.250;2023-04-30T12:52:24;23.40;99.90
16289;DHT22;26089;43.538;5.250;2023-04-30T12:54:53;23.10;99.90
16289;DHT22;26089;43.538;5.250;2023-04-30T12:57:20;23.00;99.90
16289;DHT22;26089;43.538;5.250;2023-04-30T12:59:58;23.00;99.90
16289;DHT22;26089;43.538;5.250;2023-04-30T13:02:27;23.10;99.90
16289;DHT22;26089;43.538;5.250;2023-04-30T13:04:56;23.70;99.90
16289;DHT22;26089;43.538;5.250;2023-04-30T13:07:23;23.70;99.90
16289;DHT22;26089;43.538;5.250;2023-04-30T13:09:50;23.50;99.90
16289;DHT22;26089;43.538;5.250;2023-04-30T13:12:19;23.60;99.90
16289;DHT22;26089;43.538;5.250;2023-04-30T13:14:46;23.70;99.90
16289;DHT22;26089;43.538;5.250;2023-04-30T13:17:13;23.80;99.90
16289;DHT22;26089;43.538;5.250;2023-04-30T13:19:39;24.50;99.90
16289;DHT22;26089;43.538;5.250;2023-04-30T13:22:07;24.80;99.90
16289;DHT22;26089;43.538;5.250;2023-04-30T13:24:34;25.00;99.90
16289;DHT22;26089;43.538;5.250;2023-04-30T13:27:01;25.20;99.90
16289;DHT22;26089;43.538;5.250;2023-04-30T13:29:30;25.90;99.90
16289;DHT22;26089;43.538;5.250;2023-04-30T13:31:57;26.30;99.90
16289;DHT22;26089;43.538;5.250;2023-04-30T13:34:24;25.80;99.90
16289;DHT22;26089;43.538;5.250;2023-04-30T13:36:51;25.40;99.90
16289;DHT22;26089;43.538;5.250;2023-04-30T13:39:19;25.40;99.90
16289;DHT22;26089;43.538;5.250;2023-04-30T13:41:46;25.60;99.90
16289;DHT22;26089;43.538;5.250;2023-04-30T13:44:14;25.90;99.90
16289;DHT22;26089;43.538;5.250;2023-04-30T13:46:43;25.40;99.90
16289;DHT22;26089;43.538;5.250;2023-04-30T13:49:10;24.90;99.90
16289;DHT22;26089;43.538;5.250;2023-04-30T13:51:37;24.80;99.90
16289;DHT22;26089;43.538;5.250;2023-04-30T13:54:04;24.60;99.90
16289;DHT22;26089;43.538;5.250;2023-04-30T13:56:31;24.50;99.90
16289;DHT22;26089;43.538;5.250;2023-04-30T13:58:58;25.10;99.90
16289;DHT22;26089;43.538;5.250;2023-04-30T14:01:25;25.60;99.90
16289;DHT22;26089;43.538;5.250;2023-04-30T14:03:53;26.30;99.90
16289;DHT22;26089;43.538;5.250;2023-04-30T14:06:20;26.70;99.90
16289;DHT22;26089;43.538;5.250;2023-04-30T14:08:47;27.10;99.90
16289;DHT22;26089;43.538;5.250;2023-04-30T14:11:14;26.50;99.90
16289;DHT22;26089;43.538;5.250;2023-04-30T14:13:41;26.00;99.90
16289;DHT22;26089;43.538;5.250;2023-04-30T14:16:08;25.40;99.90
16289;DHT22;26089;43.538;5.250;2023-04-30T14:18:35;25.30;99.90
16289;DHT22;26089;43.538;5.250;2023-04-30T14:21:03;25.00;99.90
16289;DHT22;26089;43.538;5.250;2023-04-30T14:23:30;24.90;99.90
16289;DHT22;26089;43.538;5.250;2023-04-30T14:25:58;24.80;99.90
16289;DHT22;26089;43.538;5.250;2023-04-30T14:28:25;25.00;99.90
16289;DHT22;26089;43.538;5.250;2023-04-30T14:30:52;25.60;99.90
16289;DHT22;26089;43.538;5.250;2023-04-30T14:33:19;26.10;99.90
16289;DHT22;26089;43.538;5.250;2023-04-30T14:35:46;26.40;99.90
16289;DHT22;26089;43.538;5.250;2023-04-30T14:38:14;26.50;99.90
16289;DHT22;26089;43.538;5.250;2023-04-30T14:40:42;26.90;99.90
16289;DHT22;26089;43.538;5.250;2023-04-30T14:43:10;26.90;99.90
16289;DHT22;26089;43.538;5.250;2023-04-30T14:45:37;27.10;99.90
16289;DHT22;26089;43.538;5.250;2023-04-30T14:48:04;26.50;99.90
16289;DHT22;26089;43.538;5.250;2023-04-30T14:50:31;25.90;99.90
16289;DHT22;26089;43.538;5.250;2023-04-30T14:52:58;25.30;99.90
16289;DHT22;26089;43.538;5.250;2023-04-30T14:55:27;25.60;99.90
16289;DHT22;26089;43.538;5.250;2023-04-30T14:57:54;25.50;99.90
16289;DHT22;26089;43.538;5.250;2023-04-30T15:00:21;25.60;99.90
16289;DHT22;26089;43.538;5.250;2023-04-30T15:02:48;26.10;99.90
16289;DHT22;26089;43.538;5.250;2023-04-30T15:05:15;26.10;99.90
16289;DHT22;26089;43.538;5.250;2023-04-30T15:07:42;25.50;99.90
16289;DHT22;26089;43.538;5.250;2023-04-30T15:10:09;25.00;99.90
16289;DHT22;26089;43.538;5.250;2023-04-30T15:12:38;24.90;99.90
16289;DHT22;26089;43.538;5.250;2023-04-30T15:15:06;25.00;99.90
16289;DHT22;26089;43.538;5.250;2023-04-30T15:17:34;25.40;99.90
16289;DHT22;26089;43.538;5.250;2023-04-30T15:20:02;25.30;99.90
16289;DHT22;26089;43.538;5.250;2023-04-30T15:22:29;25.00;99.90
16289;DHT22;26089;43.538;5.250;2023-04-30T15:24:56;24.70;99.90
16289;DHT22;26089;43.538;5.250;2023-04-30T15:27:24;25.20;99.90
16289;DHT22;26089;43.538;5.250;2023-04-30T15:29:52;25.30;99.90
16289;DHT22;26089;43.538;5.250;2023-04-30T15:32:19;25.20;99.90
16289;DHT22;26089;43.538;5.250;2023-04-30T15:34:46;25.20;99.90
16289;DHT22;26089;43.538;5.250;2023-04-30T15:37:13;24.80;99.90
16289;DHT22;26089;43.538;5.250;2023-04-30T15:39:40;24.40;99.90